sensor_id;sensor_type;location;lat;lon;timestamp;pressure;altitude;pressure_sealevel;temperature;humidity
11339;BME280;5724;42.684;23.252;2022-12-07T00:00:01;94341.16;;;4.59;100.00
11339;BME280;5724;42.684;23.252;2022-12-07T00:02:26;94337.34;;;4.60;100.00
11339;BME280;5724;42.684;23.252;2022-12-07T00:04:52;94324.44;;;4.66;100.00
11339;BME280;5724;42.684;23.252;2022-12-07T00:07:17;94326.97;;;4.63;100.00
11339;BME280;5724;42.684;23.252;2022-12-07T00:09:43;94328.56;;;4.72;100.00
11339;BME280;5724;42.684;23.252;2022-12-07T00:12:08;94328.25;;;4.74;100.00
11339;BME280;5724;42.684;23.252;2022-12-07T00:14:34;94322.88;;;4.65;100.00
11339;BME280;5724;42.684;23.252;2022-12-07T00:16:59;94327.63;;;4.59;100.00
11339;BME280;5724;42.684;23.252;2022-12-07T00:19:25;94333.50;;;4.62;100.00
11339;BME280;5724;42.684;23.252;2022-12-07T00:21:50;94335.28;;;4.57;100.00
11339;BME280;5724;42.684;23.252;2022-12-07T00:24:16;94331.94;;;4.60;100.00
11339;BME280;5724;42.684;23.252;2022-12-07T00:26:42;94340.03;;;4.60;100.00
11339;BME280;5724;42.684;23.252;2022-12-07T00:29:16;94330.34;;;4.51;100.00
11339;BME280;5724;42.684;23.252;2022-12-07T00:31:45;94325.72;;;4.51;100.00
11339;BME280;5724;42.684;23.252;2022-12-07T00:34:15;94333.22;;;4.54;100.00
11339;BME280;5724;42.684;23.252;2022-12-07T00:36:41;94333.53;;;4.53;100.00
11339;BME280;5724;42.684;23.252;2022-12-07T00:39:07;94341.50;;;4.41;100.00
11339;BME280;5724;42.684;23.252;2022-12-07T00:41:32;94337.41;;;4.35;100.00
11339;BME280;5724;42.684;23.252;2022-12-07T00:43:58;94329.25;;;4.43;100.00
11339;BME280;5724;42.684;23.252;2022-12-07T00:46:24;94324.94;;;4.42;100.00
11339;BME280;5724;42.684;23.252;2022-12-07T00:48:51;94336.88;;;4.41;100.00
11339;BME280;5724;42.684;23.252;2022-12-07T00:51:18;94338.34;;;4.39;100.00
11339;BME280;5724;42.684;23.252;2022-12-07T00:53:44;94335.63;;;4.21;100.00
11339;BME280;5724;42.684;23.252;2022-12-07T00:56:13;94328.16;;;4.10;100.00
11339;BME280;5724;42.684;23.252;2022-12-07T00:58:39;94335.81;;;4.08;100.00
11339;BME280;5724;42.684;23.252;2022-12-07T01:01:07;94334.50;;;4.05;100.00
11339;BME280;5724;42.684;23.252;2022-12-07T01:03:33;94324.34;;;4.11;100.00
11339;BME280;5724;42.684;23.252;2022-12-07T01:05:59;94327.50;;;4.13;100.00
11339;BME280;5724;42.684;23.252;2022-12-07T01:08:26;94321.63;;;4.11;100.00
11339;BME280;5724;42.684;23.252;2022-12-07T01:11:00;94322.28;;;4.16;100.00
11339;BME280;5724;42.684;23.252;2022-12-07T01:13:26;94319.72;;;4.20;100.00
11339;BME280;5724;42.684;23.252;2022-12-07T01:15:56;94317.81;;;4.20;100.00
11339;BME280;5724;42.684;23.252;2022-12-07T01:18:25;94314.31;;;4.20;100.00
11339;BME280;5724;42.684;23.252;2022-12-07T01:21:01;94303.34;;;4.16;100.00
11339;BME280;5724;42.684;23.252;2022-12-07T01:23:28;94312.25;;;4.25;100.00
11339;BME280;5724;42.684;23.252;2022-12-07T01:25:58;94308.25;;;4.23;100.00
11339;BME280;5724;42.684;23.252;2022-12-07T01:28:24;94304.75;;;4.31;100.00
11339;BME280;5724;42.684;23.252;2022-12-07T01:33:22;94307.78;;;4.29;100.00
11339;BME280;5724;42.684;23.252;2022-12-07T01:35:48;94296.97;;;4.12;100.00
11339;BME280;5724;42.684;23.252;2022-12-07T01:38:13;94305.88;;;4.13;100.00
11339;BME280;5724;42.684;23.252;2022-12-07T01:40:39;94303.34;;;3.99;100.00
11339;BME280;5724;42.684;23.252;2022-12-07T01:43:14;94303.34;;;3.99;100.00
11339;BME280;5724;42.684;23.252;2022-12-07T01:45:41;94305.41;;;4.11;100.00
11339;BME280;5724;42.684;23.252;2022-12-07T01:48:09;94300.31;;;3.92;100.00
11339;BME280;5724;42.684;23.252;2022-12-07T01:50:36;94307.00;;;4.03;100.00
11339;BME280;5724;42.684;23.252;2022-12-07T01:53:05;94297.13;;;3.81;100.00
11339;BME280;5724;42.684;23.252;2022-12-07T01:55:32;94287.44;;;3.89;100.00
11339;BME280;5724;42.684;23.252;2022-12-07T01:57:58;94289.03;;;4.07;100.00
11339;BME280;5724;42.684;23.252;2022-12-07T02:00:24;94294.28;;;4.12;100.00
11339;BME280;5724;42.684;23.252;2022-12-07T02:03:01;94290.63;;;4.25;100.00
11339;BME280;5724;42.684;23.252;2022-12-07T02:05:31;94296.66;;;4.22;100.00
11339;BME280;5724;42.684;23.252;2022-12-07T02:07:57;94291.91;;;4.19;100.00
11339;BME280;5724;42.684;23.252;2022-12-07T02:10:28;94280.75;;;4.12;100.00
11339;BME280;5724;42.684;23.252;2022-12-07T02:12:59;94279.66;;;4.05;100.00
11339;BME280;5724;42.684;23.252;2022-12-07T02:15:41;94291.09;;;4.10;100.00
11339;BME280;5724;42.684;23.252;2022-12-07T02:18:19;94285.22;;;4.08;100.00
11339;BME280;5724;42.684;23.252;2022-12-07T02:20:57;94285.69;;;4.01;100.00
11339;BME280;5724;42.684;23.252;2022-12-07T02:23:43;94280.75;;;4.03;100.00
11339;BME280;5724;42.684;23.252;2022-12-07T02:29:28;94279.81;;;4.17;100.00
11339;BME280;5724;42.684;23.252;2022-12-07T02:32:02;94279.50;;;4.18;100.00
11339;BME280;5724;42.684;23.252;2022-12-07T02:34:45;94281.22;;;4.23;100.00
11339;BME280;5724;42.684;23.252;2022-12-07T02:37:42;94280.44;;;4.14;100.00
11339;BME280;5724;42.684;23.252;2022-12-07T02:40:38;94278.22;;;4.16;100.00
11339;BME280;5724;42.684;23.252;2022-12-07T02:43:10;94278.38;;;4.11;100.00
11339;BME280;5724;42.684;23.252;2022-12-07T02:45:39;94272.66;;;4.12;100.00
11339;BME280;5724;42.684;23.252;2022-12-07T02:48:06;94277.91;;;4.17;100.00
11339;BME280;5724;42.684;23.252;2022-12-07T02:50:34;94271.72;;;3.99;100.00
11339;BME280;5724;42.684;23.252;2022-12-07T02:53:00;94266.44;;;4.03;100.00
11339;BME280;5724;42.684;23.252;2022-12-07T02:55:31;94255.63;;;4.03;100.00
11339;BME280;5724;42.684;23.252;2022-12-07T02:58:19;94259.63;;;4.06;100.00
11339;BME280;5724;42.684;23.252;2022-12-07T03:01:02;94255.81;;;3.98;100.00
11339;BME280;5724;42.684;23.252;2022-12-07T03:03:30;94243.09;;;3.98;100.00
11339;BME280;5724;42.684;23.252;2022-12-07T03:06:20;94250.88;;;4.09;100.00
11339;BME280;5724;42.684;23.252;2022-12-07T03:08:54;94253.56;;;4.09;100.00
11339;BME280;5724;42.684;23.252;2022-12-07T03:11:50;94255.63;;;4.03;100.00
11339;BME280;5724;42.684;23.252;2022-12-07T03:14:24;94250.56;;;4.01;100.00
11339;BME280;5724;42.684;23.252;2022-12-07T03:16:57;94244.34;;;4.01;100.00
11339;BME280;5724;42.684;23.252;2022-12-07T03:19:27;94259.44;;;4.11;100.00
11339;BME280;5724;42.684;23.252;2022-12-07T03:22:06;94254.03;;;4.19;100.00
11339;BME280;5724;42.684;23.252;2022-12-07T03:24:39;94258.66;;;4.19;100.00
11339;BME280;5724;42.684;23.252;2022-12-07T03:27:16;94254.81;;;4.20;100.00
11339;BME280;5724;42.684;23.252;2022-12-07T03:29:49;94253.56;;;4.26;100.00
11339;BME280;5724;42.684;23.252;2022-12-07T03:32:23;94252.13;;;4.20;100.00
11339;BME280;5724;42.684;23.252;2022-12-07T03:34:59;94266.91;;;4.14;100.00
11339;BME280;5724;42.684;23.252;2022-12-07T03:37:42;94259.13;;;4.21;100.00
11339;BME280;5724;42.684;23.252;2022-12-07T03:40:29;94248.31;;;4.21;100.00
11339;BME280;5724;42.684;23.252;2022-12-07T03:42:57;94257.06;;;4.18;100.00
11339;BME280;5724;42.684;23.252;2022-12-07T03:45:35;94253.72;;;4.12;100.00
11339;BME280;5724;42.684;23.252;2022-12-07T03:48:08;94239.59;;;4.15;100.00
11339;BME280;5724;42.684;23.252;2022-12-07T03:50:50;94251.66;;;4.18;100.00
11339;BME280;5724;42.684;23.252;2022-12-07T03:54:13;94250.34;;;4.24;100.00
11339;BME280;5724;42.684;23.252;2022-12-07T03:56:13;94249.44;;;3.94;100.00
11339;BME280;5724;42.684;23.252;2022-12-07T03:58:40;94249.13;;;3.95;100.00
11339;BME280;5724;42.684;23.252;2022-12-07T04:01:06;94244.03;;;3.94;100.00
11339;BME280;5724;42.684;23.252;2022-12-07T04:03:32;94243.09;;;3.98;100.00
11339;BME280;5724;42.684;23.252;2022-12-07T04:05:57;94241.19;;;3.99;100.00
11339;BME280;5724;42.684;23.252;2022-12-07T04:08:25;94248.00;;;4.05;100.00
11339;BME280;5724;42.684;23.252;2022-12-07T04:10:50;94239.91;;;3.96;100.00
11339;BME280;5724;42.684;23.252;2022-12-07T04:13:15;94240.38;;;4.07;100.00
11339;BME280;5724;42.684;23.252;2022-12-07T04:15:41;94248.03;;;3.96;100.00
11339;BME280;5724;42.684;23.252;2022-12-07T04:18:06;94242.94;;;3.86;100.00
11339;BME280;5724;42.684;23.252;2022-12-07T04:20:32;94242.47;;;3.67;100.00
11339;BME280;5724;42.684;23.252;2022-12-07T04:22:57;94240.53;;;3.76;100.00
11339;BME280;5724;42.684;23.252;2022-12-07T04:25:23;94248.16;;;3.57;100.00
11339;BME280;5724;42.684;23.252;2022-12-07T04:27:48;94235.78;;;3.38;100.00
11339;BME280;5724;42.684;23.252;2022-12-07T04:30:14;94239.25;;;3.30;100.00
11339;BME280;5724;42.684;23.252;2022-12-07T04:32:40;94240.03;;;3.22;100.00
11339;BME280;5724;42.684;23.252;2022-12-07T04:35:06;94245.09;;;3.24;100.00
11339;BME280;5724;42.684;23.252;2022-12-07T04:37:32;94230.00;;;3.14;100.00
11339;BME280;5724;42.684;23.252;2022-12-07T04:39:57;94250.06;;;3.30;100.00
11339;BME280;5724;42.684;23.252;2022-12-07T04:42:22;94256.25;;;3.31;100.00
11339;BME280;5724;42.684;23.252;2022-12-07T04:44:48;94247.81;;;3.32;100.00
11339;BME280;5724;42.684;23.252;2022-12-07T04:47:13;94252.09;;;3.25;100.00
11339;BME280;5724;42.684;23.252;2022-12-07T04:49:39;94248.75;;;3.28;100.00
11339;BME280;5724;42.684;23.252;2022-12-07T04:52:04;94249.41;;;3.33;100.00
11339;BME280;5724;42.684;23.252;2022-12-07T04:54:30;94248.00;;;3.44;100.00
11339;BME280;5724;42.684;23.252;2022-12-07T04:56:55;94253.88;;;3.47;100.00
11339;BME280;5724;42.684;23.252;2022-12-07T04:59:21;94251.44;;;3.28;100.00
11339;BME280;5724;42.684;23.252;2022-12-07T05:01:46;94249.25;;;3.30;100.00
11339;BME280;5724;42.684;23.252;2022-12-07T05:04:12;94252.13;;;3.33;100.00
11339;BME280;5724;42.684;23.252;2022-12-07T05:06:37;94255.91;;;3.24;100.00
11339;BME280;5724;42.684;23.252;2022-12-07T05:09:03;94254.31;;;3.23;100.00
11339;BME280;5724;42.684;23.252;2022-12-07T05:11:29;94251.31;;;3.33;100.00
11339;BME280;5724;42.684;23.252;2022-12-07T05:17:00;94250.69;;;3.44;100.00
11339;BME280;5724;42.684;23.252;2022-12-07T05:19:25;94258.16;;;3.56;100.00
11339;BME280;5724;42.684;23.252;2022-12-07T05:21:51;94258.34;;;3.60;100.00
11339;BME280;5724;42.684;23.252;2022-12-07T05:24:17;94260.41;;;3.63;100.00
11339;BME280;5724;42.684;23.252;2022-12-07T05:26:43;94253.09;;;3.63;100.00
11339;BME280;5724;42.684;23.252;2022-12-07T05:29:14;94255.66;;;3.68;100.00
11339;BME280;5724;42.684;23.252;2022-12-07T05:31:40;94245.00;;;3.72;100.00
11339;BME280;5724;42.684;23.252;2022-12-07T05:34:06;94244.69;;;3.82;100.00
11339;BME280;5724;42.684;23.252;2022-12-07T05:36:31;94243.56;;;3.83;100.00
11339;BME280;5724;42.684;23.252;2022-12-07T05:38:57;94246.91;;;3.80;100.00
11339;BME280;5724;42.684;23.252;2022-12-07T05:41:23;94239.91;;;3.79;100.00
11339;BME280;5724;42.684;23.252;2022-12-07T05:44:07;94238.16;;;3.83;100.00
11339;BME280;5724;42.684;23.252;2022-12-07T05:46:33;94234.66;;;3.65;100.00
11339;BME280;5724;42.684;23.252;2022-12-07T05:48:59;94236.44;;;3.70;100.00
11339;BME280;5724;42.684;23.252;2022-12-07T05:51:25;94240.25;;;3.69;100.00
11339;BME280;5724;42.684;23.252;2022-12-07T05:53:51;94234.66;;;3.65;100.00
11339;BME280;5724;42.684;23.252;2022-12-07T05:56:17;94234.81;;;3.52;100.00
11339;BME280;5724;42.684;23.252;2022-12-07T05:58:42;94232.44;;;3.50;100.00
11339;BME280;5724;42.684;23.252;2022-12-07T06:01:27;94233.84;;;3.22;100.00
11339;BME280;5724;42.684;23.252;2022-12-07T06:03:52;94235.88;;;3.16;100.00
11339;BME280;5724;42.684;23.252;2022-12-07T06:06:18;94238.63;;;3.33;100.00
11339;BME280;5724;42.684;23.252;2022-12-07T06:08:43;94236.69;;;3.25;100.00
11339;BME280;5724;42.684;23.252;2022-12-07T06:11:09;94241.78;;;3.35;100.00
11339;BME280;5724;42.684;23.252;2022-12-07T06:13:53;94247.84;;;3.50;100.00
11339;BME280;5724;42.684;23.252;2022-12-07T06:16:18;94245.31;;;3.53;100.00
11339;BME280;5724;42.684;23.252;2022-12-07T06:18:44;94250.38;;;3.55;100.00
11339;BME280;5724;42.684;23.252;2022-12-07T06:21:09;94243.84;;;3.47;100.00
11339;BME280;5724;42.684;23.252;2022-12-07T06:23:35;94247.06;;;3.49;100.00
11339;BME280;5724;42.684;23.252;2022-12-07T06:26:00;94245.97;;;3.59;100.00
11339;BME280;5724;42.684;23.252;2022-12-07T06:28:25;94245.97;;;3.67;100.00
11339;BME280;5724;42.684;23.252;2022-12-07T06:30:58;94252.97;;;3.77;100.00
11339;BME280;5724;42.684;23.252;2022-12-07T06:33:24;94261.53;;;3.79;100.00
11339;BME280;5724;42.684;23.252;2022-12-07T06:35:50;94258.03;;;3.87;100.00
11339;BME280;5724;42.684;23.252;2022-12-07T06:38:15;94262.34;;;3.97;100.00
11339;BME280;5724;42.684;23.252;2022-12-07T06:40:41;94263.75;;;3.86;100.00
11339;BME280;5724;42.684;23.252;2022-12-07T06:43:06;94262.47;;;3.92;100.00
11339;BME280;5724;42.684;23.252;2022-12-07T06:45:31;94272.69;;;3.86;100.00
11339;BME280;5724;42.684;23.252;2022-12-07T06:47:58;94266.44;;;3.94;100.00
11339;BME280;5724;42.684;23.252;2022-12-07T06:50:24;94272.69;;;3.86;100.00
11339;BME280;5724;42.684;23.252;2022-12-07T06:52:50;94274.22;;;4.05;100.00
11339;BME280;5724;42.684;23.252;2022-12-07T06:55:16;94264.22;;;4.05;100.00
11339;BME280;5724;42.684;23.252;2022-12-07T06:57:41;94269.78;;;4.17;100.00
11339;BME280;5724;42.684;23.252;2022-12-07T07:00:07;94271.22;;;4.15;100.00
11339;BME280;5724;42.684;23.252;2022-12-07T07:02:33;94271.84;;;4.12;100.00
11339;BME280;5724;42.684;23.252;2022-12-07T07:04:58;94272.97;;;4.11;100.00
11339;BME280;5724;42.684;23.252;2022-12-07T07:07:23;94270.72;;;4.13;100.00
11339;BME280;5724;42.684;23.252;2022-12-07T07:09:49;94271.69;;;4.17;100.00
11339;BME280;5724;42.684;23.252;2022-12-07T07:12:14;94274.09;;;4.18;100.00
11339;BME280;5724;42.684;23.252;2022-12-07T07:14:39;94277.44;;;4.07;100.00
11339;BME280;5724;42.684;23.252;2022-12-07T07:17:05;94274.41;;;4.17;100.00
11339;BME280;5724;42.684;23.252;2022-12-07T07:19:30;94266.91;;;4.14;100.00
11339;BME280;5724;42.684;23.252;2022-12-07T07:21:56;94270.41;;;4.14;100.00
11339;BME280;5724;42.684;23.252;2022-12-07T07:24:21;94276.16;;;4.13;100.00
11339;BME280;5724;42.684;23.252;2022-12-07T07:26:47;94279.03;;;4.08;100.00
11339;BME280;5724;42.684;23.252;2022-12-07T07:29:12;94281.72;;;4.25;100.00
11339;BME280;5724;42.684;23.252;2022-12-07T07:31:37;94279.16;;;4.20;100.00
11339;BME280;5724;42.684;23.252;2022-12-07T07:34:04;94275.00;;;4.31;100.00
11339;BME280;5724;42.684;23.252;2022-12-07T07:36:29;94268.00;;;4.39;100.00
11339;BME280;5724;42.684;23.252;2022-12-07T07:38:54;94272.94;;;4.45;100.00
11339;BME280;5724;42.684;23.252;2022-12-07T07:41:20;94270.72;;;4.39;100.00
11339;BME280;5724;42.684;23.252;2022-12-07T07:43:45;94275.31;;;4.47;100.00
11339;BME280;5724;42.684;23.252;2022-12-07T07:46:11;94282.28;;;4.56;100.00
11339;BME280;5724;42.684;23.252;2022-12-07T07:48:36;94281.81;;;4.54;100.00
11339;BME280;5724;42.684;23.252;2022-12-07T07:51:05;94278.31;;;4.54;100.00
11339;BME280;5724;42.684;23.252;2022-12-07T07:53:32;94278.00;;;4.55;100.00
11339;BME280;5724;42.684;23.252;2022-12-07T07:55:57;94273.16;;;4.70;100.00
11339;BME280;5724;42.684;23.252;2022-12-07T07:58:23;94277.81;;;4.60;100.00
11339;BME280;5724;42.684;23.252;2022-12-07T08:00:48;94281.03;;;4.54;100.00
11339;BME280;5724;42.684;23.252;2022-12-07T08:03:14;94272.09;;;4.53;100.00
11339;BME280;5724;42.684;23.252;2022-12-07T08:05:39;94273.38;;;4.56;100.00
11339;BME280;5724;42.684;23.252;2022-12-07T08:08:05;94274.31;;;4.60;100.00
11339;BME280;5724;42.684;23.252;2022-12-07T08:10:30;94270.78;;;4.68;100.00
11339;BME280;5724;42.684;23.252;2022-12-07T08:12:57;94273.16;;;4.70;100.00
11339;BME280;5724;42.684;23.252;2022-12-07T08:15:37;94274.75;;;4.71;100.00
11339;BME280;5724;42.684;23.252;2022-12-07T08:18:03;94273.63;;;4.80;100.00
11339;BME280;5724;42.684;23.252;2022-12-07T08:20:32;94264.41;;;4.73;100.00
11339;BME280;5724;42.684;23.252;2022-12-07T08:22:58;94272.66;;;4.85;100.00
11339;BME280;5724;42.684;23.252;2022-12-07T08:25:24;94272.28;;;4.95;100.00
11339;BME280;5724;42.684;23.252;2022-12-07T08:27:50;94266.78;;;4.83;100.00
11339;BME280;5724;42.684;23.252;2022-12-07T08:30:16;94281.38;;;4.91;100.00
11339;BME280;5724;42.684;23.252;2022-12-07T08:32:44;94276.63;;;4.87;100.00
11339;BME280;5724;42.684;23.252;2022-12-07T08:35:09;94271.38;;;4.82;100.00
11339;BME280;5724;42.684;23.252;2022-12-07T08:37:35;94277.44;;;4.79;100.00
11339;BME280;5724;42.684;23.252;2022-12-07T08:40:02;94275.50;;;4.88;100.00
11339;BME280;5724;42.684;23.252;2022-12-07T08:42:28;94273.97;;;5.08;100.00
11339;BME280;5724;42.684;23.252;2022-12-07T08:44:56;94273.69;;;5.01;100.00
11339;BME280;5724;42.684;23.252;2022-12-07T08:47:23;94261.69;;;5.11;100.00
11339;BME280;5724;42.684;23.252;2022-12-07T08:49:51;94262.41;;;4.99;100.00
11339;BME280;5724;42.684;23.252;2022-12-07T08:52:17;94266.97;;;5.07;100.00
11339;BME280;5724;42.684;23.252;2022-12-07T08:54:43;94262.41;;;4.99;100.00
11339;BME280;5724;42.684;23.252;2022-12-07T08:57:09;94246.06;;;4.87;100.00
11339;BME280;5724;42.684;23.252;2022-12-07T08:59:37;94254.31;;;5.20;100.00
11339;BME280;5724;42.684;23.252;2022-12-07T09:02:04;94258.47;;;5.47;100.00
11339;BME280;5724;42.684;23.252;2022-12-07T09:04:30;94224.84;;;5.48;100.00
11339;BME280;5724;42.684;23.252;2022-12-07T09:06:56;94228.16;;;5.74;100.00
11339;BME280;5724;42.684;23.252;2022-12-07T09:09:22;94238.88;;;5.71;100.00
11339;BME280;5724;42.684;23.252;2022-12-07T09:11:47;94235.66;;;5.98;100.00
11339;BME280;5724;42.684;23.252;2022-12-07T09:14:13;94232.06;;;6.27;100.00
11339;BME280;5724;42.684;23.252;2022-12-07T09:16:39;94238.41;;;6.44;98.43
11339;BME280;5724;42.684;23.252;2022-12-07T09:19:04;94236.16;;;6.46;97.85
11339;BME280;5724;42.684;23.252;2022-12-07T09:21:30;94233.34;;;6.54;97.30
11339;BME280;5724;42.684;23.252;2022-12-07T09:23:55;94235.34;;;6.66;96.85
11339;BME280;5724;42.684;23.252;2022-12-07T09:26:21;94227.38;;;6.49;96.14
11339;BME280;5724;42.684;23.252;2022-12-07T09:28:46;94227.59;;;6.56;95.69
11339;BME280;5724;42.684;23.252;2022-12-07T09:31:12;94222.38;;;6.51;96.31
11339;BME280;5724;42.684;23.252;2022-12-07T09:33:37;94229.28;;;6.48;96.76
11339;BME280;5724;42.684;23.252;2022-12-07T09:36:03;94205.50;;;6.45;96.69
11339;BME280;5724;42.684;23.252;2022-12-07T09:38:29;94206.00;;;6.59;95.26
11339;BME280;5724;42.684;23.252;2022-12-07T09:40:56;94210.50;;;6.55;96.60
11339;BME280;5724;42.684;23.252;2022-12-07T09:43:23;94203.22;;;6.80;95.71
11339;BME280;5724;42.684;23.252;2022-12-07T09:45:54;94210.47;;;6.76;94.96
11339;BME280;5724;42.684;23.252;2022-12-07T09:50:54;94200.13;;;6.57;95.15
11339;BME280;5724;42.684;23.252;2022-12-07T09:53:36;94206.47;;;6.62;95.41
11339;BME280;5724;42.684;23.252;2022-12-07T09:56:03;94204.00;;;6.69;95.22
11339;BME280;5724;42.684;23.252;2022-12-07T09:58:30;94207.06;;;6.79;95.03
11339;BME280;5724;42.684;23.252;2022-12-07T10:00:59;94197.13;;;6.96;94.51
11339;BME280;5724;42.684;23.252;2022-12-07T10:03:28;94196.31;;;7.07;93.83
11339;BME280;5724;42.684;23.252;2022-12-07T10:05:54;94198.78;;;7.12;94.59
11339;BME280;5724;42.684;23.252;2022-12-07T10:08:20;94194.16;;;7.37;92.15
11339;BME280;5724;42.684;23.252;2022-12-07T10:10:50;94191.66;;;7.44;90.92
11339;BME280;5724;42.684;23.252;2022-12-07T10:13:36;94184.47;;;7.52;90.62
11339;BME280;5724;42.684;23.252;2022-12-07T10:16:02;94184.28;;;7.85;90.05
11339;BME280;5724;42.684;23.252;2022-12-07T10:23:29;94168.13;;;8.04;87.28
11339;BME280;5724;42.684;23.252;2022-12-07T10:25:55;94168.47;;;8.03;87.61
11339;BME280;5724;42.684;23.252;2022-12-07T10:28:21;94172.00;;;8.03;86.85
11339;BME280;5724;42.684;23.252;2022-12-07T10:33:58;94149.25;;;7.56;88.90
11339;BME280;5724;42.684;23.252;2022-12-07T10:36:29;94151.16;;;7.67;88.68
11339;BME280;5724;42.684;23.252;2022-12-07T10:39:03;94149.31;;;7.71;89.05
11339;BME280;5724;42.684;23.252;2022-12-07T10:41:28;94147.59;;;7.79;88.65
11339;BME280;5724;42.684;23.252;2022-12-07T10:43:55;94144.34;;;7.73;88.46
11339;BME280;5724;42.684;23.252;2022-12-07T10:51:27;94140.00;;;7.85;88.45
11339;BME280;5724;42.684;23.252;2022-12-07T10:54:12;94133.63;;;7.93;88.68
11339;BME280;5724;42.684;23.252;2022-12-07T10:56:58;94133.63;;;8.09;87.23
11339;BME280;5724;42.684;23.252;2022-12-07T10:59:39;94128.47;;;8.19;86.57
11339;BME280;5724;42.684;23.252;2022-12-07T11:13:27;94113.78;;;8.68;81.52
11339;BME280;5724;42.684;23.252;2022-12-07T11:21:20;94094.81;;;9.57;80.53
11339;BME280;5724;42.684;23.252;2022-12-07T11:24:15;94094.00;;;9.95;78.36
11339;BME280;5724;42.684;23.252;2022-12-07T11:38:03;94073.00;;;10.42;74.95
11339;BME280;5724;42.684;23.252;2022-12-07T11:40:36;94074.66;;;10.69;73.39
11339;BME280;5724;42.684;23.252;2022-12-07T11:45:57;94079.00;;;10.97;72.26
11339;BME280;5724;42.684;23.252;2022-12-07T11:48:35;94075.06;;;10.94;71.90
11339;BME280;5724;42.684;23.252;2022-12-07T11:51:07;94063.53;;;10.81;71.68
11339;BME280;5724;42.684;23.252;2022-12-07T11:53:41;94075.44;;;10.70;72.61
11339;BME280;5724;42.684;23.252;2022-12-07T11:56:15;94066.94;;;10.75;72.50
11339;BME280;5724;42.684;23.252;2022-12-07T12:06:42;94045.63;;;10.84;71.48
11339;BME280;5724;42.684;23.252;2022-12-07T12:09:28;94034.97;;;10.79;71.89
11339;BME280;5724;42.684;23.252;2022-12-07T12:17:45;94036.94;;;11.05;70.43
11339;BME280;5724;42.684;23.252;2022-12-07T12:25:56;94032.38;;;11.12;70.22
11339;BME280;5724;42.684;23.252;2022-12-07T12:28:33;94023.66;;;11.03;71.13
11339;BME280;5724;42.684;23.252;2022-12-07T12:33:52;94015.22;;;11.15;70.71
11339;BME280;5724;42.684;23.252;2022-12-07T12:46:57;94002.53;;;11.00;70.80
11339;BME280;5724;42.684;23.252;2022-12-07T12:51:53;94006.63;;;11.17;70.69
11339;BME280;5724;42.684;23.252;2022-12-07T13:02:32;94011.59;;;11.38;69.65
11339;BME280;5724;42.684;23.252;2022-12-07T13:29:26;94005.84;;;11.46;69.07
11339;BME280;5724;42.684;23.252;2022-12-07T13:31:54;93991.16;;;11.28;69.03
11339;BME280;5724;42.684;23.252;2022-12-07T13:34:40;94000.00;;;11.48;68.53
11339;BME280;5724;42.684;23.252;2022-12-07T13:39:49;93997.69;;;11.50;69.15
11339;BME280;5724;42.684;23.252;2022-12-07T13:44:47;93999.91;;;11.41;69.00
11339;BME280;5724;42.684;23.252;2022-12-07T13:47:17;93994.63;;;11.25;69.66
11339;BME280;5724;42.684;23.252;2022-12-07T13:49:51;93986.78;;;11.20;71.22
11339;BME280;5724;42.684;23.252;2022-12-07T13:52:22;93985.00;;;11.05;71.19
11339;BME280;5724;42.684;23.252;2022-12-07T13:54:59;93986.13;;;11.00;71.44
11339;BME280;5724;42.684;23.252;2022-12-07T13:57:26;93991.28;;;11.09;71.02
11339;BME280;5724;42.684;23.252;2022-12-07T13:59:53;93993.34;;;11.15;70.98
11339;BME280;5724;42.684;23.252;2022-12-07T14:02:29;93991.63;;;11.04;71.68
11339;BME280;5724;42.684;23.252;2022-12-07T14:07:33;93980.69;;;11.04;71.87
11339;BME280;5724;42.684;23.252;2022-12-07T14:10:06;93994.34;;;11.04;71.29
11339;BME280;5724;42.684;23.252;2022-12-07T14:12:34;93991.53;;;10.97;71.82
11339;BME280;5724;42.684;23.252;2022-12-07T14:15:01;93982.69;;;10.80;72.01
11339;BME280;5724;42.684;23.252;2022-12-07T14:17:27;94000.63;;;10.78;72.22
11339;BME280;5724;42.684;23.252;2022-12-07T14:20:00;94004.41;;;10.70;72.63
11339;BME280;5724;42.684;23.252;2022-12-07T14:25:20;94009.94;;;10.50;73.29
11339;BME280;5724;42.684;23.252;2022-12-07T14:28:00;94001.53;;;10.36;73.54
11339;BME280;5724;42.684;23.252;2022-12-07T14:30:29;94006.84;;;10.25;74.42
11339;BME280;5724;42.684;23.252;2022-12-07T14:33:01;94006.91;;;10.10;74.80
11339;BME280;5724;42.684;23.252;2022-12-07T14:35:28;94001.09;;;9.88;75.18
11339;BME280;5724;42.684;23.252;2022-12-07T14:37:53;93998.31;;;9.85;75.33
11339;BME280;5724;42.684;23.252;2022-12-07T14:40:29;94000.47;;;9.75;76.00
11339;BME280;5724;42.684;23.252;2022-12-07T14:43:04;94000.25;;;9.65;76.62
11339;BME280;5724;42.684;23.252;2022-12-07T14:45:30;94004.44;;;9.59;76.70
11339;BME280;5724;42.684;23.252;2022-12-07T14:47:56;93992.06;;;9.45;77.11
11339;BME280;5724;42.684;23.252;2022-12-07T14:50:22;93988.94;;;9.43;77.73
11339;BME280;5724;42.684;23.252;2022-12-07T14:53:00;93987.88;;;9.29;77.91
11339;BME280;5724;42.684;23.252;2022-12-07T14:55:29;94003.66;;;9.20;78.54
11339;BME280;5724;42.684;23.252;2022-12-07T14:57:56;94006.00;;;9.02;79.45
11339;BME280;5724;42.684;23.252;2022-12-07T15:00:24;93998.53;;;8.99;79.63
11339;BME280;5724;42.684;23.252;2022-12-07T15:02:51;94002.63;;;8.89;79.93
11339;BME280;5724;42.684;23.252;2022-12-07T15:05:17;94001.50;;;8.74;81.07
11339;BME280;5724;42.684;23.252;2022-12-07T15:07:44;94003.31;;;8.51;82.45
11339;BME280;5724;42.684;23.252;2022-12-07T15:12:40;94020.59;;;8.27;83.13
11339;BME280;5724;42.684;23.252;2022-12-07T15:15:06;94024.13;;;8.12;84.55
11339;BME280;5724;42.684;23.252;2022-12-07T15:17:31;94016.38;;;8.14;84.50
11339;BME280;5724;42.684;23.252;2022-12-07T15:19:57;94009.72;;;7.95;85.64
11339;BME280;5724;42.684;23.252;2022-12-07T15:22:22;94020.00;;;8.02;85.33
11339;BME280;5724;42.684;23.252;2022-12-07T15:24:48;94021.47;;;7.99;85.60
11339;BME280;5724;42.684;23.252;2022-12-07T15:27:13;94013.53;;;7.63;86.87